sensor_id;sensor_type;location;lat;lon;timestamp;pressure;altitude;pressure_sealevel;temperature;humidity
79138;BME280;68544;45.566;10.238;2023-04-08T00:01:27;99817.63;;;8.81;59.07
79138;BME280;68544;45.566;10.238;2023-04-08T00:03:53;99823.22;;;8.94;58.60
79138;BME280;68544;45.566;10.238;2023-04-08T00:06:18;99824.44;;;8.69;59.39
79138;BME280;68544;45.566;10.238;2023-04-08T00:08:43;99825.41;;;8.76;59.20
79138;BME280;68544;45.566;10.238;2023-04-08T00:11:09;99820.72;;;8.70;59.39
79138;BME280;68544;45.566;10.238;2023-04-08T00:13:34;99826.47;;;8.67;59.30
79138;BME280;68544;45.566;10.238;2023-04-08T00:16:00;99828.75;;;8.78;59.35
79138;BME280;68544;45.566;10.238;2023-04-08T00:18:25;99816.91;;;8.87;58.83
79138;BME280;68544;45.566;10.238;2023-04-08T00:20:51;99805.97;;;8.66;59.21
79138;BME280;68544;45.566;10.238;2023-04-08T00:23:16;99827.00;;;8.62;59.55
79138;BME280;68544;45.566;10.238;2023-04-08T00:25:42;99824.50;;;8.61;59.57
79138;BME280;68544;45.566;10.238;2023-04-08T00:28:07;99826.47;;;8.67;59.33
79138;BME280;68544;45.566;10.238;2023-04-08T00:30:33;99813.56;;;8.85;58.81
79138;BME280;68544;45.566;10.238;2023-04-08T00:32:58;99813.25;;;8.80;59.06
79138;BME280;68544;45.566;10.238;2023-04-08T00:35:24;99811.13;;;8.90;58.49
79138;BME280;68544;45.566;10.238;2023-04-08T00:37:49;99815.50;;;8.91;58.66
79138;BME280;68544;45.566;10.238;2023-04-08T00:40:15;99808.91;;;8.79;59.02
79138;BME280;68544;45.566;10.238;2023-04-08T00:42:41;99818.75;;;8.87;58.75
79138;BME280;68544;45.566;10.238;2023-04-08T00:45:06;99822.44;;;8.63;59.67
79138;BME280;68544;45.566;10.238;2023-04-08T00:47:32;99816.00;;;8.72;59.18
79138;BME280;68544;45.566;10.238;2023-04-08T00:49:59;99802.16;;;8.98;58.09
79138;BME280;68544;45.566;10.238;2023-04-08T00:52:24;99809.31;;;9.05;57.73
79138;BME280;68544;45.566;10.238;2023-04-08T00:54:50;99810.72;;;9.01;57.72
79138;BME280;68544;45.566;10.238;2023-04-08T00:57:15;99815.09;;;9.02;57.95
79138;BME280;68544;45.566;10.238;2023-04-08T00:59:41;99809.81;;;9.23;56.21
79138;BME280;68544;45.566;10.238;2023-04-08T01:07:30;99814.63;;;9.13;56.66
79138;BME280;68544;45.566;10.238;2023-04-08T01:10:12;99815.59;;;9.20;55.83
79138;BME280;68544;45.566;10.238;2023-04-08T01:12:42;99809.22;;;8.99;56.33
79138;BME280;68544;45.566;10.238;2023-04-08T01:15:10;99815.13;;;8.94;56.89
79138;BME280;68544;45.566;10.238;2023-04-08T01:17:36;99811.50;;;8.87;57.15
79138;BME280;68544;45.566;10.238;2023-04-08T01:20:03;99809.72;;;9.02;56.42
79138;BME280;68544;45.566;10.238;2023-04-08T01:22:49;99805.44;;;9.08;56.02
79138;BME280;68544;45.566;10.238;2023-04-08T01:25:22;99802.84;;;9.14;55.67
79138;BME280;68544;45.566;10.238;2023-04-08T01:27:48;99793.72;;;9.15;55.70
79138;BME280;68544;45.566;10.238;2023-04-08T01:30:18;99803.75;;;9.07;56.06
79138;BME280;68544;45.566;10.238;2023-04-08T01:32:45;99806.94;;;9.10;55.82
79138;BME280;68544;45.566;10.238;2023-04-08T01:35:12;99802.81;;;9.00;56.26
79138;BME280;68544;45.566;10.238;2023-04-08T01:37:39;99801.50;;;8.96;56.52
79138;BME280;68544;45.566;10.238;2023-04-08T01:40:07;99800.78;;;9.02;56.23
79138;BME280;68544;45.566;10.238;2023-04-08T01:42:35;99799.59;;;8.82;56.60
79138;BME280;68544;45.566;10.238;2023-04-08T01:45:02;99800.00;;;8.93;56.10
79138;BME280;68544;45.566;10.238;2023-04-08T01:47:30;99800.22;;;8.92;56.26
79138;BME280;68544;45.566;10.238;2023-04-08T01:49:56;99802.53;;;8.95;55.94
79138;BME280;68544;45.566;10.238;2023-04-08T01:52:24;99806.09;;;9.10;55.51
79138;BME280;68544;45.566;10.238;2023-04-08T01:54:50;99804.88;;;9.12;55.65
79138;BME280;68544;45.566;10.238;2023-04-08T01:57:21;99802.53;;;8.95;56.41
79138;BME280;68544;45.566;10.238;2023-04-08T01:59:50;99801.47;;;8.81;57.13
79138;BME280;68544;45.566;10.238;2023-04-08T02:02:19;99795.38;;;8.87;56.83
79138;BME280;68544;45.566;10.238;2023-04-08T02:04:45;99807.78;;;8.88;56.89
79138;BME280;68544;45.566;10.238;2023-04-08T02:07:11;99803.94;;;9.05;55.93
79138;BME280;68544;45.566;10.238;2023-04-08T02:09:36;99800.69;;;9.10;55.37
79138;BME280;68544;45.566;10.238;2023-04-08T02:12:01;99800.91;;;9.08;55.15
79138;BME280;68544;45.566;10.238;2023-04-08T02:14:27;99802.56;;;9.24;54.94
79138;BME280;68544;45.566;10.238;2023-04-08T02:16:55;99799.50;;;9.12;55.33
79138;BME280;68544;45.566;10.238;2023-04-08T02:19:35;99809.25;;;9.28;55.66
79138;BME280;68544;45.566;10.238;2023-04-08T02:22:11;99811.09;;;9.13;55.76
79138;BME280;68544;45.566;10.238;2023-04-08T02:24:39;99801.97;;;8.99;56.33
79138;BME280;68544;45.566;10.238;2023-04-08T02:27:04;99813.25;;;8.80;57.27
79138;BME280;68544;45.566;10.238;2023-04-08T02:29:32;99814.81;;;8.74;57.06
79138;BME280;68544;45.566;10.238;2023-04-08T02:32:00;99819.41;;;8.89;56.00
79138;BME280;68544;45.566;10.238;2023-04-08T02:34:26;99808.66;;;9.03;55.14
79138;BME280;68544;45.566;10.238;2023-04-08T02:36:52;99816.75;;;9.03;54.82
79138;BME280;68544;45.566;10.238;2023-04-08T02:39:17;99819.88;;;8.92;54.83
79138;BME280;68544;45.566;10.238;2023-04-08T02:41:42;99827.28;;;8.90;54.29
79138;BME280;68544;45.566;10.238;2023-04-08T02:44:08;99824.66;;;8.82;55.22
79138;BME280;68544;45.566;10.238;2023-04-08T02:46:34;99824.25;;;8.93;54.28
79138;BME280;68544;45.566;10.238;2023-04-08T02:48:59;99816.06;;;8.87;54.43
79138;BME280;68544;45.566;10.238;2023-04-08T02:51:25;99820.25;;;8.89;54.13
79138;BME280;68544;45.566;10.238;2023-04-08T02:53:50;99819.06;;;8.92;54.16
79138;BME280;68544;45.566;10.238;2023-04-08T02:56:15;99815.97;;;8.95;53.91
79138;BME280;68544;45.566;10.238;2023-04-08T02:58:41;99812.09;;;8.97;53.52
79138;BME280;68544;45.566;10.238;2023-04-08T03:01:07;99813.75;;;8.98;53.70
79138;BME280;68544;45.566;10.238;2023-04-08T03:03:32;99815.13;;;8.94;53.26
79138;BME280;68544;45.566;10.238;2023-04-08T03:05:58;99813.56;;;8.85;53.58
79138;BME280;68544;45.566;10.238;2023-04-08T03:08:23;99812.41;;;8.80;53.77
79138;BME280;68544;45.566;10.238;2023-04-08T03:10:49;99804.84;;;8.98;53.49
79138;BME280;68544;45.566;10.238;2023-04-08T03:13:15;99801.50;;;8.96;53.70
79138;BME280;68544;45.566;10.238;2023-04-08T03:15:41;99800.38;;;8.90;53.96
79138;BME280;68544;45.566;10.238;2023-04-08T03:18:06;99800.25;;;8.84;53.93
79138;BME280;68544;45.566;10.238;2023-04-08T03:20:32;99801.16;;;8.76;54.87
79138;BME280;68544;45.566;10.238;2023-04-08T03:22:57;99812.34;;;8.65;55.59
79138;BME280;68544;45.566;10.238;2023-04-08T03:25:22;99811.47;;;8.72;55.22
79138;BME280;68544;45.566;10.238;2023-04-08T03:27:48;99808.00;;;8.64;55.28
79138;BME280;68544;45.566;10.238;2023-04-08T03:30:13;99810.06;;;8.54;55.79
79138;BME280;68544;45.566;10.238;2023-04-08T03:32:38;99806.97;;;8.65;55.15
79138;BME280;68544;45.566;10.238;2023-04-08T03:35:04;99809.72;;;8.57;55.45
79138;BME280;68544;45.566;10.238;2023-04-08T03:37:30;99806.97;;;8.65;54.81
79138;BME280;68544;45.566;10.238;2023-04-08T03:39:56;99803.19;;;8.74;54.29
79138;BME280;68544;45.566;10.238;2023-04-08T03:42:21;99795.19;;;8.66;54.16
79138;BME280;68544;45.566;10.238;2023-04-08T03:44:46;99799.72;;;8.88;53.38
79138;BME280;68544;45.566;10.238;2023-04-08T03:47:12;99808.50;;;8.82;53.75
79138;BME280;68544;45.566;10.238;2023-04-08T03:49:37;99811.41;;;8.81;53.87
79138;BME280;68544;45.566;10.238;2023-04-08T03:52:03;99804.81;;;8.83;53.96
79138;BME280;68544;45.566;10.238;2023-04-08T03:54:28;99805.50;;;9.00;53.36
79138;BME280;68544;45.566;10.238;2023-04-08T03:56:53;99807.44;;;8.91;53.62
79138;BME280;68544;45.566;10.238;2023-04-08T03:59:19;99806.16;;;9.02;53.45
79138;BME280;68544;45.566;10.238;2023-04-08T04:01:44;99814.22;;;8.87;53.78
79138;BME280;68544;45.566;10.238;2023-04-08T04:04:10;99816.53;;;8.90;53.63
79138;BME280;68544;45.566;10.238;2023-04-08T04:06:35;99814.72;;;9.05;53.41
79138;BME280;68544;45.566;10.238;2023-04-08T04:09:01;99808.94;;;8.94;53.51
79138;BME280;68544;45.566;10.238;2023-04-08T04:11:27;99824.59;;;8.90;53.42
79138;BME280;68544;45.566;10.238;2023-04-08T04:13:52;99807.78;;;8.88;53.41
79138;BME280;68544;45.566;10.238;2023-04-08T04:16:17;99808.28;;;8.69;54.07
79138;BME280;68544;45.566;10.238;2023-04-08T04:18:43;99813.53;;;8.62;54.71
79138;BME280;68544;45.566;10.238;2023-04-08T04:21:08;99806.72;;;8.52;54.91
79138;BME280;68544;45.566;10.238;2023-04-08T04:23:34;99804.41;;;8.49;55.07
79138;BME280;68544;45.566;10.238;2023-04-08T04:25:59;99805.41;;;8.48;55.19
79138;BME280;68544;45.566;10.238;2023-04-08T04:28:25;99810.16;;;8.68;54.34
79138;BME280;68544;45.566;10.238;2023-04-08T04:30:50;99814.09;;;8.81;53.37
79138;BME280;68544;45.566;10.238;2023-04-08T04:33:16;99809.44;;;8.74;53.37
79138;BME280;68544;45.566;10.238;2023-04-08T04:35:41;99811.63;;;8.71;53.47
79138;BME280;68544;45.566;10.238;2023-04-08T04:38:06;99812.13;;;8.74;53.32
79138;BME280;68544;45.566;10.238;2023-04-08T04:40:37;99807.22;;;8.78;52.89
79138;BME280;68544;45.566;10.238;2023-04-08T04:43:03;99814.00;;;8.89;52.24
79138;BME280;68544;45.566;10.238;2023-04-08T04:45:28;99818.56;;;8.88;52.42
79138;BME280;68544;45.566;10.238;2023-04-08T04:47:54;99808.31;;;9.06;51.68
79138;BME280;68544;45.566;10.238;2023-04-08T04:50:19;99808.84;;;9.02;51.56
79138;BME280;68544;45.566;10.238;2023-04-08T04:52:45;99811.00;;;9.06;51.57
79138;BME280;68544;45.566;10.238;2023-04-08T04:55:10;99806.56;;;9.13;51.26
79138;BME280;68544;45.566;10.238;2023-04-08T04:57:35;99819.88;;;8.92;51.95
79138;BME280;68544;45.566;10.238;2023-04-08T05:00:01;99813.22;;;9.03;51.96
79138;BME280;68544;45.566;10.238;2023-04-08T05:02:26;99817.00;;;8.94;52.14
79138;BME280;68544;45.566;10.238;2023-04-08T05:04:51;99810.41;;;8.96;52.10
79138;BME280;68544;45.566;10.238;2023-04-08T05:07:20;99820.47;;;9.02;51.74
79138;BME280;68544;45.566;10.238;2023-04-08T05:09:45;99822.69;;;8.99;51.87
79138;BME280;68544;45.566;10.238;2023-04-08T05:12:11;99822.88;;;8.97;51.83
79138;BME280;68544;45.566;10.238;2023-04-08T05:14:36;99818.88;;;8.93;52.04
79138;BME280;68544;45.566;10.238;2023-04-08T05:17:02;99813.72;;;9.06;51.88
79138;BME280;68544;45.566;10.238;2023-04-08T05:19:27;99823.09;;;9.10;51.83
79138;BME280;68544;45.566;10.238;2023-04-08T05:21:52;99827.84;;;9.23;51.70
79138;BME280;68544;45.566;10.238;2023-04-08T05:24:17;99830.72;;;9.21;52.59
79138;BME280;68544;45.566;10.238;2023-04-08T05:26:43;99829.22;;;9.04;53.48
79138;BME280;68544;45.566;10.238;2023-04-08T05:29:08;99830.13;;;9.11;53.76
79138;BME280;68544;45.566;10.238;2023-04-08T05:31:33;99828.75;;;9.15;53.01
79138;BME280;68544;45.566;10.238;2023-04-08T05:33:59;99831.00;;;9.26;52.46
79138;BME280;68544;45.566;10.238;2023-04-08T05:36:24;99836.31;;;9.34;52.24
79138;BME280;68544;45.566;10.238;2023-04-08T05:38:50;99821.44;;;9.24;51.76
79138;BME280;68544;45.566;10.238;2023-04-08T05:41:15;99840.81;;;9.42;51.49
79138;BME280;68544;45.566;10.238;2023-04-08T05:43:41;99840.06;;;9.63;51.35
79138;BME280;68544;45.566;10.238;2023-04-08T05:46:07;99836.34;;;9.64;52.18
79138;BME280;68544;45.566;10.238;2023-04-08T05:48:32;99833.38;;;9.59;51.90
79138;BME280;68544;45.566;10.238;2023-04-08T05:50:58;99839.44;;;9.75;51.00
79138;BME280;68544;45.566;10.238;2023-04-08T05:53:23;99849.00;;;9.92;50.87
79138;BME280;68544;45.566;10.238;2023-04-08T05:55:49;99850.84;;;10.21;49.44
79138;BME280;68544;45.566;10.238;2023-04-08T05:58:14;99851.09;;;10.41;48.18
79138;BME280;68544;45.566;10.238;2023-04-08T06:00:40;99854.66;;;10.26;49.31
79138;BME280;68544;45.566;10.238;2023-04-08T06:03:05;99852.97;;;10.40;48.21
79138;BME280;68544;45.566;10.238;2023-04-08T06:05:30;99856.78;;;10.67;47.33
79138;BME280;68544;45.566;10.238;2023-04-08T06:07:56;99855.03;;;10.59;48.04
79138;BME280;68544;45.566;10.238;2023-04-08T06:10:22;99859.06;;;10.84;47.32
79138;BME280;68544;45.566;10.238;2023-04-08T06:12:47;99862.13;;;11.02;46.91
79138;BME280;68544;45.566;10.238;2023-04-08T06:15:12;99861.31;;;11.30;45.70
79138;BME280;68544;45.566;10.238;2023-04-08T06:17:38;99855.88;;;11.51;45.71
79138;BME280;68544;45.566;10.238;2023-04-08T06:20:06;99864.81;;;11.72;45.67
79138;BME280;68544;45.566;10.238;2023-04-08T06:22:34;99844.81;;;11.67;45.00
79138;BME280;68544;45.566;10.238;2023-04-08T06:25:00;99860.47;;;12.12;44.29
79138;BME280;68544;45.566;10.238;2023-04-08T06:27:26;99858.44;;;12.21;44.11
79138;BME280;68544;45.566;10.238;2023-04-08T06:29:51;99873.00;;;12.20;43.09
79138;BME280;68544;45.566;10.238;2023-04-08T06:32:17;99869.16;;;12.48;42.50
79138;BME280;68544;45.566;10.238;2023-04-08T06:34:44;99873.63;;;12.76;42.81
79138;BME280;68544;45.566;10.238;2023-04-08T06:37:09;99865.72;;;12.74;43.66
79138;BME280;68544;45.566;10.238;2023-04-08T06:39:34;99863.00;;;12.87;42.29
79138;BME280;68544;45.566;10.238;2023-04-08T06:42:00;99847.41;;;12.96;41.77
79138;BME280;68544;45.566;10.238;2023-04-08T06:44:25;99876.19;;;13.03;41.00
79138;BME280;68544;45.566;10.238;2023-04-08T06:46:51;99869.16;;;13.48;39.20
79138;BME280;68544;45.566;10.238;2023-04-08T06:49:16;99868.53;;;13.59;39.33
79138;BME280;68544;45.566;10.238;2023-04-08T06:51:41;99862.81;;;14.06;38.71
79138;BME280;68544;45.566;10.238;2023-04-08T06:54:07;99869.75;;;13.89;38.55
79138;BME280;68544;45.566;10.238;2023-04-08T06:56:34;99871.19;;;13.98;38.00
79138;BME280;68544;45.566;10.238;2023-04-08T06:58:59;99858.34;;;14.25;37.46
79138;BME280;68544;45.566;10.238;2023-04-08T07:01:25;99868.56;;;14.43;36.76
79138;BME280;68544;45.566;10.238;2023-04-08T07:03:50;99872.56;;;14.78;36.56
79138;BME280;68544;45.566;10.238;2023-04-08T07:06:16;99863.53;;;15.15;35.62
79138;BME280;68544;45.566;10.238;2023-04-08T07:08:41;99868.72;;;14.92;36.06
79138;BME280;68544;45.566;10.238;2023-04-08T07:11:06;99867.38;;;14.32;37.24
79138;BME280;68544;45.566;10.238;2023-04-08T07:13:32;99875.41;;;14.52;37.01
79138;BME280;68544;45.566;10.238;2023-04-08T07:15:57;99876.78;;;14.74;37.30
79138;BME280;68544;45.566;10.238;2023-04-08T07:18:23;99882.56;;;14.84;37.09
79138;BME280;68544;45.566;10.238;2023-04-08T07:20:52;99872.13;;;14.81;37.89
79138;BME280;68544;45.566;10.238;2023-04-08T07:23:22;99872.25;;;14.99;37.56
79138;BME280;68544;45.566;10.238;2023-04-08T07:25:47;99883.88;;;14.75;38.60
79138;BME280;68544;45.566;10.238;2023-04-08T07:28:12;99868.28;;;15.26;37.59
79138;BME280;68544;45.566;10.238;2023-04-08T07:30:38;99874.59;;;15.51;37.05
79138;BME280;68544;45.566;10.238;2023-04-08T07:33:03;99867.44;;;16.00;35.72
79138;BME280;68544;45.566;10.238;2023-04-08T07:35:29;99863.94;;;15.93;35.06
79138;BME280;68544;45.566;10.238;2023-04-08T07:37:56;99868.09;;;15.52;35.42
79138;BME280;68544;45.566;10.238;2023-04-08T07:40:22;99877.13;;;16.14;34.28
79138;BME280;68544;45.566;10.238;2023-04-08T07:42:47;99879.75;;;16.38;33.99
79138;BME280;68544;45.566;10.238;2023-04-08T07:45:13;99877.59;;;16.29;34.18
79138;BME280;68544;45.566;10.238;2023-04-08T07:47:38;99875.38;;;16.74;33.09
79138;BME280;68544;45.566;10.238;2023-04-08T07:50:04;99881.06;;;16.72;33.02
79138;BME280;68544;45.566;10.238;2023-04-08T07:52:30;99880.31;;;16.65;32.10
79138;BME280;68544;45.566;10.238;2023-04-08T07:54:55;99887.84;;;16.99;31.37
79138;BME280;68544;45.566;10.238;2023-04-08T07:57:20;99886.66;;;17.07;30.90
79138;BME280;68544;45.566;10.238;2023-04-08T07:59:46;99887.34;;;17.44;30.67
79138;BME280;68544;45.566;10.238;2023-04-08T08:02:11;99887.69;;;17.77;29.79
79138;BME280;68544;45.566;10.238;2023-04-08T08:04:36;99881.13;;;18.01;29.24
79138;BME280;68544;45.566;10.238;2023-04-08T08:07:02;99895.75;;;18.30;28.33
79138;BME280;68544;45.566;10.238;2023-04-08T08:09:27;99882.69;;;17.97;29.27
79138;BME280;68544;45.566;10.238;2023-04-08T08:11:52;99885.13;;;18.84;28.69
79138;BME280;68544;45.566;10.238;2023-04-08T08:14:18;99880.53;;;19.30;27.91
79138;BME280;68544;45.566;10.238;2023-04-08T08:16:43;99871.00;;;19.99;26.23
79138;BME280;68544;45.566;10.238;2023-04-08T08:19:09;99876.97;;;20.72;26.27
79138;BME280;68544;45.566;10.238;2023-04-08T08:21:37;99879.94;;;21.14;25.30
79138;BME280;68544;45.566;10.238;2023-04-08T08:24:03;99881.69;;;22.20;23.36
79138;BME280;68544;45.566;10.238;2023-04-08T08:26:29;99875.03;;;25.43;18.15
79138;BME280;68544;45.566;10.238;2023-04-08T08:28:54;99856.31;;;29.48;13.63
79138;BME280;68544;45.566;10.238;2023-04-08T08:31:19;99858.50;;;29.74;13.63
79138;BME280;68544;45.566;10.238;2023-04-08T08:33:45;99868.31;;;31.11;12.34
79138;BME280;68544;45.566;10.238;2023-04-08T08:36:11;99864.75;;;31.28;12.26
79138;BME280;68544;45.566;10.238;2023-04-08T08:38:37;99861.94;;;33.18;10.83
79138;BME280;68544;45.566;10.238;2023-04-08T08:41:02;99870.94;;;32.10;11.51
79138;BME280;68544;45.566;10.238;2023-04-08T08:43:29;99864.50;;;33.52;10.65
79138;BME280;68544;45.566;10.238;2023-04-08T08:45:57;99868.06;;;33.32;10.58
79138;BME280;68544;45.566;10.238;2023-04-08T08:48:23;99858.25;;;33.26;10.74
79138;BME280;68544;45.566;10.238;2023-04-08T08:50:48;99860.50;;;32.36;11.36
79138;BME280;68544;45.566;10.238;2023-04-08T08:53:13;99868.31;;;29.35;14.16
79138;BME280;68544;45.566;10.238;2023-04-08T08:55:39;99877.00;;;26.57;17.60
79138;BME280;68544;45.566;10.238;2023-04-08T08:58:05;99877.97;;;25.57;18.72
79138;BME280;68544;45.566;10.238;2023-04-08T09:00:35;99872.63;;;24.73;20.18
79138;BME280;68544;45.566;10.238;2023-04-08T09:03:21;99870.88;;;24.13;20.64
79138;BME280;68544;45.566;10.238;2023-04-08T09:10:53;99867.94;;;24.68;20.48
79138;BME280;68544;45.566;10.238;2023-04-08T09:13:21;99867.63;;;24.85;20.11
79138;BME280;68544;45.566;10.238;2023-04-08T09:16:00;99866.47;;;28.08;16.50
79138;BME280;68544;45.566;10.238;2023-04-08T09:18:27;99862.25;;;31.35;12.50
79138;BME280;68544;45.566;10.238;2023-04-08T09:20:52;99865.91;;;32.50;11.19
79138;BME280;68544;45.566;10.238;2023-04-08T09:23:18;99868.75;;;33.70;9.91
79138;BME280;68544;45.566;10.238;2023-04-08T09:25:43;99871.53;;;35.44;8.94
79138;BME280;68544;45.566;10.238;2023-04-08T09:28:19;99861.56;;;35.07;9.07
79138;BME280;68544;45.566;10.238;2023-04-08T09:30:45;99865.50;;;36.41;8.25
79138;BME280;68544;45.566;10.238;2023-04-08T09:33:12;99861.38;;;36.66;7.76
79138;BME280;68544;45.566;10.238;2023-04-08T09:35:37;99863.91;;;35.57;8.86
79138;BME280;68544;45.566;10.238;2023-04-08T09:38:02;99860.34;;;36.59;7.88
79138;BME280;68544;45.566;10.238;2023-04-08T09:40:32;99850.16;;;37.74;7.44
79138;BME280;68544;45.566;10.238;2023-04-08T09:43:04;99856.88;;;36.34;8.56
79138;BME280;68544;45.566;10.238;2023-04-08T09:45:32;99853.97;;;37.62;7.52
79138;BME280;68544;45.566;10.238;2023-04-08T09:48:11;99840.22;;;36.57;8.04
79138;BME280;68544;45.566;10.238;2023-04-08T09:50:46;99846.00;;;38.25;7.04
79138;BME280;68544;45.566;10.238;2023-04-08T09:53:19;99860.00;;;36.01;8.66
79138;BME280;68544;45.566;10.238;2023-04-08T09:55:53;99858.31;;;35.85;8.76
79138;BME280;68544;45.566;10.238;2023-04-08T09:58:27;99852.44;;;36.64;8.21
79138;BME280;68544;45.566;10.238;2023-04-08T10:00:53;99849.25;;;37.32;7.89
79138;BME280;68544;45.566;10.238;2023-04-08T10:03:26;99843.34;;;37.37;7.47
79138;BME280;68544;45.566;10.238;2023-04-08T10:05:53;99848.84;;;37.49;7.69
79138;BME280;68544;45.566;10.238;2023-04-08T10:08:22;99856.16;;;38.75;6.66
79138;BME280;68544;45.566;10.238;2023-04-08T10:10:49;99848.47;;;37.15;7.46
79138;BME280;68544;45.566;10.238;2023-04-08T10:13:14;99847.53;;;37.81;7.28
79138;BME280;68544;45.566;10.238;2023-04-08T10:15:40;99842.78;;;38.27;6.89
79138;BME280;68544;45.566;10.238;2023-04-08T10:23:01;99843.22;;;36.48;7.88
79138;BME280;68544;45.566;10.238;2023-04-08T10:28:00;99828.44;;;39.66;5.90
79138;BME280;68544;45.566;10.238;2023-04-08T10:32:57;99829.13;;;38.10;6.77
79138;BME280;68544;45.566;10.238;2023-04-08T10:35:40;99823.94;;;37.89;6.75
79138;BME280;68544;45.566;10.238;2023-04-08T10:38:07;99825.47;;;38.28;6.54
79138;BME280;68544;45.566;10.238;2023-04-08T10:40:36;99813.09;;;38.82;6.31
79138;BME280;68544;45.566;10.238;2023-04-08T10:43:09;99814.13;;;38.47;6.08
79138;BME280;68544;45.566;10.238;2023-04-08T10:45:34;99821.88;;;38.28;6.77
79138;BME280;68544;45.566;10.238;2023-04-08T10:50:37;99804.81;;;39.52;5.56
79138;BME280;68544;45.566;10.238;2023-04-08T10:53:03;99802.59;;;39.68;5.36
79138;BME280;68544;45.566;10.238;2023-04-08T10:55:29;99800.22;;;38.35;6.31
79138;BME280;68544;45.566;10.238;2023-04-08T10:58:04;99804.25;;;37.92;6.34
79138;BME280;68544;45.566;10.238;2023-04-08T11:00:37;99795.13;;;37.80;6.25
79138;BME280;68544;45.566;10.238;2023-04-08T11:03:11;99798.09;;;37.68;6.70
79138;BME280;68544;45.566;10.238;2023-04-08T11:05:37;99789.44;;;37.57;6.53
79138;BME280;68544;45.566;10.238;2023-04-08T11:08:04;99796.59;;;37.93;6.81
79138;BME280;68544;45.566;10.238;2023-04-08T11:10:30;99789.06;;;37.59;6.71
79138;BME280;68544;45.566;10.238;2023-04-08T11:12:56;99791.28;;;37.69;7.02
79138;BME280;68544;45.566;10.238;2023-04-08T11:15:28;99787.06;;;38.43;6.33
79138;BME280;68544;45.566;10.238;2023-04-08T11:17:54;99793.44;;;38.17;6.50
79138;BME280;68544;45.566;10.238;2023-04-08T11:20:21;99786.31;;;38.49;6.22
79138;BME280;68544;45.566;10.238;2023-04-08T11:22:46;99783.44;;;37.20;7.13
79138;BME280;68544;45.566;10.238;2023-04-08T11:25:12;99780.94;;;36.34;6.89
79138;BME280;68544;45.566;10.238;2023-04-08T11:27:38;99777.84;;;36.70;7.13
79138;BME280;68544;45.566;10.238;2023-04-08T11:30:04;99783.22;;;35.42;8.30
79138;BME280;68544;45.566;10.238;2023-04-08T11:32:30;99778.34;;;34.39;8.82
79138;BME280;68544;45.566;10.238;2023-04-08T11:35:03;99773.16;;;34.89;8.72
79138;BME280;68544;45.566;10.238;2023-04-08T11:37:39;99767.69;;;36.50;7.55
79138;BME280;68544;45.566;10.238;2023-04-08T11:40:12;99768.41;;;35.29;7.88
79138;BME280;68544;45.566;10.238;2023-04-08T11:42:38;99771.25;;;35.72;7.94
79138;BME280;68544;45.566;10.238;2023-04-08T11:45:11;99774.84;;;35.57;8.04
79138;BME280;68544;45.566;10.238;2023-04-08T11:47:37;99768.88;;;34.67;8.59
79138;BME280;68544;45.566;10.238;2023-04-08T11:50:03;99771.28;;;34.93;8.18
79138;BME280;68544;45.566;10.238;2023-04-08T11:52:48;99759.97;;;34.29;8.44
79138;BME280;68544;45.566;10.238;2023-04-08T11:55:24;99761.88;;;33.80;9.00
79138;BME280;68544;45.566;10.238;2023-04-08T11:57:50;99771.97;;;31.05;11.28
79138;BME280;68544;45.566;10.238;2023-04-08T12:00:17;99772.28;;;29.38;12.53
79138;BME280;68544;45.566;10.238;2023-04-08T12:02:43;99763.50;;;28.73;13.28
79138;BME280;68544;45.566;10.238;2023-04-08T12:05:08;99765.78;;;28.44;13.59
79138;BME280;68544;45.566;10.238;2023-04-08T12:07:35;99755.81;;;28.02;14.43
79138;BME280;68544;45.566;10.238;2023-04-08T12:10:00;99755.91;;;28.10;14.23
79138;BME280;68544;45.566;10.238;2023-04-08T12:12:25;99762.34;;;27.79;14.48
79138;BME280;68544;45.566;10.238;2023-04-08T12:14:51;99766.88;;;26.49;16.19
79138;BME280;68544;45.566;10.238;2023-04-08T12:17:16;99773.13;;;25.89;16.79
79138;BME280;68544;45.566;10.238;2023-04-08T12:19:41;99759.72;;;25.72;17.21
79138;BME280;68544;45.566;10.238;2023-04-08T12:22:07;99760.53;;;25.11;18.03
79138;BME280;68544;45.566;10.238;2023-04-08T12:24:33;99750.69;;;24.94;17.76
79138;BME280;68544;45.566;10.238;2023-04-08T12:26:58;99758.97;;;24.99;18.21
79138;BME280;68544;45.566;10.238;2023-04-08T12:29:23;99756.66;;;25.45;17.09
79138;BME280;68544;45.566;10.238;2023-04-08T12:31:49;99758.34;;;24.64;18.36
79138;BME280;68544;45.566;10.238;2023-04-08T12:34:14;99752.91;;;24.97;17.97
79138;BME280;68544;45.566;10.238;2023-04-08T12:36:40;99747.81;;;24.66;19.22
79138;BME280;68544;45.566;10.238;2023-04-08T12:39:07;99749.91;;;24.94;17.86
79138;BME280;68544;45.566;10.238;2023-04-08T12:41:32;99749.97;;;25.18;17.37
79138;BME280;68544;45.566;10.238;2023-04-08T12:43:57;99746.84;;;24.90;17.58
79138;BME280;68544;45.566;10.238;2023-04-08T12:46:23;99753.72;;;24.49;18.30
79138;BME280;68544;45.566;10.238;2023-04-08T12:48:48;99743.22;;;24.56;18.72
79138;BME280;68544;45.566;10.238;2023-04-08T12:51:13;99736.81;;;24.07;18.81
79138;BME280;68544;45.566;10.238;2023-04-08T12:53:38;99750.72;;;23.11;19.68
79138;BME280;68544;45.566;10.238;2023-04-08T12:56:04;99741.94;;;23.34;19.76
79138;BME280;68544;45.566;10.238;2023-04-08T12:58:29;99742.97;;;23.18;19.89
79138;BME280;68544;45.566;10.238;2023-04-08T13:00:55;99740.25;;;22.98;20.03
79138;BME280;68544;45.566;10.238;2023-04-08T13:03:20;99738.00;;;22.70;20.46
79138;BME280;68544;45.566;10.238;2023-04-08T13:05:45;99728.56;;;22.46;20.76
79138;BME280;68544;45.566;10.238;2023-04-08T13:08:11;99739.19;;;22.17;21.24
79138;BME280;68544;45.566;10.238;2023-04-08T13:10:36;99737.44;;;21.54;22.13
79138;BME280;68544;45.566;10.238;2023-04-08T13:13:01;99746.38;;;21.76;21.80
79138;BME280;68544;45.566;10.238;2023-04-08T13:15:27;99738.63;;;21.63;21.97
79138;BME280;68544;45.566;10.238;2023-04-08T13:17:52;99738.38;;;21.70;22.11